LTCL Airport Information

Runway Information
Runway 06 Length 5905 ft width 98 ft
Elevation 1946 ft Threshold 0 ft Heading 68
Runway 24 Length 5905 ft Width 98 ft
Elevation 2000 ft Threshold 0 ft Heading 248
Airport Frequencies
Type TWR Name TWR Frequency 132.05 MHZ
Airport Navaids
Type VOR-DME Name Siirt Frequency 114300 KHZ
Type NDB Name Siirt Frequency 409 KHZ
Airport Weather Information & NOTAM
ADDS - METARS form results

(0211 UTC 23 August 2019)
Data provider http://aviationweather.gov/metar/data/
 
Forecast for: LTCL (SIIRT AIRPORT , TR)
Text: TAF LTCL 230140Z 2303/2312 VRB02KT CAVOK
Forecast period: 0300 to 0700 UTC 23 August 2019
Forecast type: FROM: standard forecast or significant change
Winds: variable direction winds at 2 MPH (2 knots; 1.0 m/s)
Visibility: 6 or more miles 10+ km)
Ceiling: unknown
Clouds: missing
Weather: NSW  (no significant weather)
Text: BECMG 2307/2309 21012KT
Forecast period: 0700 to 1200 UTC 23 August 2019
Forecast type: BECOMING: Conditions expected to become as follows by 0900 UTC 23 August 2019
Winds: from the SSW (210 degrees) at 14 MPH (12 knots; 6.2 m/s)
Visibility: 6 or more miles 10+ km)
Ceiling: unknown
Clouds: missing
Weather: NSW  (no significant weather)